Time;durP1;ratioP1;P1;durP2;ratioP2;P2;SDS_P1;SDS_P2;PMS_P1;PMS_P2;Temp;Humidity;BMP_temperature;BMP_pressure;BME280_temperature;BME280_humidity;BME280_pressure;Samples;Min_cycle;Max_cycle;Signal;HPM_P1;HPM_P2
2021/06/26 00:00:09;;;;;;;15.40;9.73;;;25.40;75.40;;;;;;5078211;28;20067;-83
2021/06/26 00:02:35;;;;;;;14.55;9.25;;;25.40;75.60;;;;;;5078164;28;20044;-83
2021/06/26 00:05:01;;;;;;;16.75;9.43;;;25.30;75.70;;;;;;5077293;28;20060;-84
2021/06/26 00:07:27;;;;;;;13.02;9.13;;;25.30;75.90;;;;;;5077607;28;20033;-84
2021/06/26 00:09:52;;;;;;;19.15;9.50;;;25.20;76.00;;;;;;5059136;28;20032;-84
2021/06/26 00:12:18;;;;;;;14.90;9.60;;;25.20;76.20;;;;;;5077081;28;20150;-84
2021/06/26 00:14:45;;;;;;;15.15;10.07;;;25.20;76.40;;;;;;5077242;28;20467;-84
2021/06/26 00:17:11;;;;;;;15.15;9.00;;;25.20;76.60;;;;;;5077552;28;20028;-83
2021/06/26 00:19:37;;;;;;;14.27;9.45;;;25.20;76.70;;;;;;5077268;28;20032;-83
2021/06/26 00:22:04;;;;;;;15.70;10.35;;;25.10;76.80;;;;;;5096999;28;20032;-83
2021/06/26 00:24:30;;;;;;;16.80;9.88;;;25.10;76.90;;;;;;5081981;28;20076;-82
2021/06/26 00:26:56;;;;;;;15.13;9.90;;;25.00;77.00;;;;;;5081716;28;20024;-83
2021/06/26 00:29:22;;;;;;;14.40;10.23;;;25.10;77.20;;;;;;5077170;28;20039;-84
2021/06/26 00:31:47;;;;;;;17.55;9.60;;;25.00;77.30;;;;;;5076901;28;20382;-84
2021/06/26 00:34:13;;;;;;;14.05;10.13;;;25.00;77.40;;;;;;5077240;28;20027;-84
2021/06/26 00:36:39;;;;;;;14.95;10.15;;;25.00;77.60;;;;;;5058705;28;20021;-84
2021/06/26 00:39:05;;;;;;;15.63;9.85;;;24.90;77.70;;;;;;5058747;28;20028;-84
2021/06/26 00:41:31;;;;;;;20.27;10.95;;;24.90;77.90;;;;;;5076424;28;20033;-86
2021/06/26 00:43:57;;;;;;;16.27;10.57;;;24.90;78.20;;;;;;5058316;28;20054;-88
2021/06/26 00:46:22;;;;;;;18.23;10.77;;;24.80;78.20;;;;;;5058505;28;20021;-90
2021/06/26 00:48:48;;;;;;;18.85;11.07;;;24.80;78.50;;;;;;5058457;28;20089;-90
2021/06/26 00:51:14;;;;;;;17.15;10.82;;;24.90;78.70;;;;;;5076588;28;20459;-90
2021/06/26 00:53:40;;;;;;;18.90;11.35;;;24.90;78.80;;;;;;5076273;28;20060;-91
2021/06/26 00:56:08;;;;;;;25.75;11.88;;;24.90;78.90;;;;;;5058534;28;20029;-91
2021/06/26 00:58:34;;;;;;;23.05;11.27;;;24.90;79.00;;;;;;5058475;28;20379;-91
2021/06/26 01:00:59;;;;;;;15.18;11.32;;;24.80;79.10;;;;;;5058552;28;20028;-91
2021/06/26 01:03:25;;;;;;;21.20;10.75;;;24.90;79.20;;;;;;5076667;28;20031;-90
2021/06/26 01:05:51;;;;;;;14.13;10.60;;;24.90;79.30;;;;;;5076316;28;20035;-89
2021/06/26 01:08:17;;;;;;;13.52;10.38;;;24.90;79.50;;;;;;5058336;28;20035;-89
2021/06/26 01:10:43;;;;;;;12.73;10.02;;;24.90;79.50;;;;;;5058897;28;20031;-90
2021/06/26 01:13:09;;;;;;;23.45;11.50;;;24.80;80.10;;;;;;5059286;28;20368;-90
2021/06/26 01:15:35;;;;;;;15.68;10.65;;;24.80;79.50;;;;;;5076810;28;20546;-89
2021/06/26 01:18:01;;;;;;;18.33;11.38;;;24.80;79.60;;;;;;5076084;28;20095;-89
2021/06/26 01:20:26;;;;;;;25.75;13.75;;;24.80;79.60;;;;;;5058174;28;20060;-89
2021/06/26 01:22:58;;;;;;;28.67;17.15;;;24.70;79.80;;;;;;5076229;28;20024;-89
2021/06/26 01:25:24;;;;;;;24.33;15.93;;;24.70;80.00;;;;;;5076177;28;20027;-89
2021/06/26 01:27:51;;;;;;;25.33;12.73;;;24.70;80.10;;;;;;5058176;28;20024;-89
2021/06/26 01:30:23;;;;;;;21.42;12.57;;;24.70;80.30;;;;;;5057811;28;20107;-89
2021/06/26 01:32:49;;;;;;;21.25;11.85;;;24.70;80.50;;;;;;5075906;28;20021;-88
2021/06/26 01:35:14;;;;;;;17.95;11.25;;;24.60;80.60;;;;;;5076584;28;20031;-91
2021/06/26 01:37:41;;;;;;;23.10;11.70;;;24.70;80.70;;;;;;5059915;28;20025;-91
2021/06/26 01:40:08;;;;;;;20.00;12.25;;;24.60;80.80;;;;;;5076752;28;20155;-88
2021/06/26 01:42:34;;;;;;;16.38;10.90;;;24.60;80.80;;;;;;5057588;28;20032;-87
2021/06/26 01:44:59;;;;;;;18.23;11.10;;;24.60;80.80;;;;;;5075650;28;20028;-87
2021/06/26 01:47:25;;;;;;;14.95;10.90;;;24.70;80.80;;;;;;5057479;28;20502;-88
2021/06/26 01:49:51;;;;;;;17.95;10.95;;;24.70;80.80;;;;;;5076354;28;20032;-87
2021/06/26 01:52:16;;;;;;;13.25;10.60;;;24.70;80.60;;;;;;5057239;28;20024;-87
2021/06/26 01:54:42;;;;;;;19.13;12.00;;;24.70;80.50;;;;;;5057173;28;20093;-87
2021/06/26 01:57:09;;;;;;;15.88;10.65;;;24.70;80.40;;;;;;5057330;28;20032;-87
2021/06/26 01:59:37;;;;;;;13.57;10.52;;;24.80;80.40;;;;;;5075433;28;20031;-88
2021/06/26 02:02:03;;;;;;;16.20;10.88;;;24.80;80.10;;;;;;5057601;28;20058;-88
2021/06/26 02:04:29;;;;;;;16.50;10.95;;;24.80;79.90;;;;;;5057147;28;20032;-88
2021/06/26 02:06:55;;;;;;;21.67;11.18;;;24.90;79.90;;;;;;5075584;28;20020;-88
2021/06/26 02:09:20;;;;;;;14.15;10.35;;;25.00;79.80;;;;;;5056970;28;20064;-87
2021/06/26 02:11:46;;;;;;;22.25;10.30;;;25.10;79.50;;;;;;5057162;28;20115;-87
2021/06/26 02:14:12;;;;;;;13.52;9.82;;;25.30;79.20;;;;;;5057248;28;20031;-87
2021/06/26 02:16:38;;;;;;;17.15;9.68;;;25.50;78.70;;;;;;5075490;28;20457;-87
2021/06/26 02:19:04;;;;;;;19.75;10.48;;;25.70;78.10;;;;;;5074576;28;20025;-88
2021/06/26 02:21:30;;;;;;;13.77;10.02;;;25.90;77.50;;;;;;5057176;28;20035;-88
2021/06/26 02:23:56;;;;;;;15.63;10.20;;;26.20;76.80;;;;;;5056951;28;20082;-88
2021/06/26 02:26:22;;;;;;;17.27;9.65;;;26.50;75.90;;;;;;5074686;28;20024;-88
2021/06/26 02:28:51;;;;;;;16.15;9.57;;;26.90;75.00;;;;;;5075036;28;20078;-89
2021/06/26 02:31:17;;;;;;;20.33;9.35;;;27.20;74.00;;;;;;5074253;28;20479;-88
2021/06/26 02:33:42;;;;;;;17.00;9.18;;;27.60;73.10;;;;;;5056618;28;20021;-88
2021/06/26 02:36:08;;;;;;;13.43;9.63;;;28.00;72.10;;;;;;5056530;28;20024;-88
2021/06/26 02:38:34;;;;;;;14.13;9.35;;;28.40;71.20;;;;;;5074728;28;20024;-88
2021/06/26 02:41:00;;;;;;;17.83;9.05;;;28.70;70.10;;;;;;5074773;28;20031;-87
2021/06/26 02:43:26;;;;;;;15.38;8.60;;;29.20;69.10;;;;;;5056723;28;20111;-87
2021/06/26 02:45:51;;;;;;;9.25;8.35;;;29.60;68.00;;;;;;5056478;28;20051;-87
2021/06/26 02:48:17;;;;;;;13.65;8.45;;;30.10;67.00;;;;;;5056379;28;20028;-87
2021/06/26 02:50:43;;;;;;;11.27;8.65;;;30.50;65.90;;;;;;5074430;28;20017;-86
2021/06/26 02:53:10;;;;;;;12.25;8.25;;;30.90;64.90;;;;;;5074473;28;20045;-86
2021/06/26 02:55:35;;;;;;;17.58;9.02;;;31.20;63.70;;;;;;5074118;28;20025;-87
2021/06/26 02:58:01;;;;;;;12.10;8.10;;;31.40;62.90;;;;;;5056172;28;20025;-87
2021/06/26 03:00:27;;;;;;;13.60;7.78;;;31.40;62.50;;;;;;5073903;28;20371;-86
2021/06/26 03:02:53;;;;;;;20.02;8.23;;;31.60;62.20;;;;;;5073679;28;20028;-86
2021/06/26 03:05:19;;;;;;;19.45;8.18;;;31.60;61.80;;;;;;5073955;28;20098;-86
2021/06/26 03:07:52;;;;;;;17.58;7.75;;;31.80;61.60;;;;;;5056208;28;20023;-86
2021/06/26 03:10:19;;;;;;;18.45;7.63;;;32.00;61.20;;;;;;5055921;28;20111;-87
2021/06/26 03:12:46;;;;;;;13.48;7.43;;;32.50;61.00;;;;;;5073968;28;20464;-86
2021/06/26 03:15:12;;;;;;;13.38;7.65;;;33.10;60.00;;;;;;5074574;28;20028;-86
2021/06/26 03:17:38;;;;;;;16.02;8.65;;;33.90;58.90;;;;;;5073972;28;20028;-86
2021/06/26 03:20:06;;;;;;;15.52;7.60;;;34.60;57.50;;;;;;5055947;28;20044;-87
2021/06/26 03:22:32;;;;;;;14.52;7.45;;;35.30;56.20;;;;;;5073867;28;20021;-87
2021/06/26 03:24:57;;;;;;;14.77;8.52;;;36.00;55.00;;;;;;5074726;28;20162;-86
2021/06/26 03:27:23;;;;;;;17.83;7.05;;;36.70;53.70;;;;;;5074520;28;20896;-86
2021/06/26 03:29:49;;;;;;;15.52;7.53;;;37.30;52.60;;;;;;5073333;28;20024;-86
2021/06/26 03:32:15;;;;;;;12.82;7.22;;;38.00;51.50;;;;;;5073532;28;20020;-86
2021/06/26 03:34:40;;;;;;;10.98;6.45;;;38.50;50.50;;;;;;5073834;28;20046;-87
2021/06/26 03:37:06;;;;;;;18.23;7.65;;;39.00;49.50;;;;;;5073787;28;20029;-86
2021/06/26 03:39:32;;;;;;;12.32;6.72;;;39.40;48.60;;;;;;5073922;28;20024;-86
2021/06/26 03:41:58;;;;;;;14.77;7.03;;;39.90;47.90;;;;;;5075216;28;20024;-87
2021/06/26 03:44:23;;;;;;;12.20;7.32;;;40.30;47.20;;;;;;5075268;28;20074;-86
2021/06/26 03:46:49;;;;;;;12.55;7.90;;;40.80;46.60;;;;;;5074485;28;20017;-87
2021/06/26 03:49:15;;;;;;;11.32;7.82;;;41.20;45.80;;;;;;5074195;28;20020;-87
2021/06/26 03:51:43;;;;;;;21.67;8.13;;;41.60;45.10;;;;;;5080545;28;20031;-86
2021/06/26 03:54:09;;;;;;;17.77;7.28;;;42.00;44.40;;;;;;5087127;28;20045;-86
2021/06/26 03:56:34;;;;;;;17.00;7.45;;;42.40;43.80;;;;;;5077528;28;20096;-86
2021/06/26 03:59:01;;;;;;;11.18;7.10;;;42.80;43.30;;;;;;5056426;28;20033;-86
2021/06/26 04:01:27;;;;;;;11.80;8.48;;;43.10;42.80;;;;;;5078782;28;20028;-86
2021/06/26 04:03:53;;;;;;;16.88;8.05;;;43.50;42.20;;;;;;5077824;28;20486;-84
2021/06/26 04:06:19;;;;;;;15.02;7.95;;;43.90;41.90;;;;;;5076457;28;20451;-85
2021/06/26 04:08:45;;;;;;;13.00;7.60;;;44.10;41.20;;;;;;5074215;28;20024;-84
2021/06/26 04:11:11;;;;;;;12.02;7.15;;;44.50;40.80;;;;;;5073434;28;20300;-85
2021/06/26 04:13:36;;;;;;;14.77;7.40;;;44.90;40.40;;;;;;5073378;28;20060;-86
2021/06/26 04:16:04;;;;;;;14.80;7.68;;;45.30;40.00;;;;;;5055965;28;20818;-86
2021/06/26 04:18:31;;;;;;;14.02;7.50;;;45.60;39.60;;;;;;5073324;28;20021;-88
2021/06/26 04:20:56;;;;;;;16.83;7.78;;;45.80;39.30;;;;;;5074153;28;20054;-89
2021/06/26 04:23:22;;;;;;;15.95;7.57;;;46.10;39.00;;;;;;5074036;28;20024;-90
2021/06/26 04:25:50;;;;;;;12.93;7.72;;;46.40;38.80;;;;;;5068218;28;20005;-84
2021/06/26 04:28:16;;;;;;;11.38;7.63;;;46.70;38.50;;;;;;5089603;28;20004;-86
2021/06/26 04:30:42;;;;;;;14.40;7.97;;;46.90;38.00;;;;;;5077718;28;20056;-88
2021/06/26 04:33:09;;;;;;;8.65;7.13;;;47.20;37.70;;;;;;5073230;28;20444;-90
2021/06/26 04:35:35;;;;;;;18.35;7.63;;;47.30;37.20;;;;;;5072920;28;20020;-88
2021/06/26 04:38:01;;;;;;;20.80;8.77;;;47.50;37.10;;;;;;5072963;28;20074;-88
2021/06/26 04:40:27;;;;;;;18.13;8.10;;;47.70;37.00;;;;;;5072481;28;20028;-87
2021/06/26 04:42:53;;;;;;;15.32;7.97;;;47.80;36.90;;;;;;5074874;28;20146;-85
2021/06/26 04:45:19;;;;;;;13.40;7.40;;;48.10;36.70;;;;;;5058279;28;20360;-86
2021/06/26 04:47:45;;;;;;;14.75;7.35;;;48.20;36.40;;;;;;5076287;28;20041;-85
2021/06/26 04:50:12;;;;;;;12.45;8.07;;;48.40;36.10;;;;;;5058225;28;20047;-86
2021/06/26 04:52:42;;;;;;;12.27;7.95;;;48.60;35.90;;;;;;5075875;28;20099;-85
2021/06/26 04:55:09;;;;;;;13.55;8.45;;;48.80;35.60;;;;;;5058700;28;20528;-86
2021/06/26 04:57:34;;;;;;;22.33;10.27;;;49.10;35.70;;;;;;5076056;28;20040;-86
2021/06/26 05:00:00;;;;;;;10.25;7.93;;;49.40;35.40;;;;;;5075981;28;20024;-85
2021/06/26 05:02:26;;;;;;;8.25;7.45;;;49.70;35.10;;;;;;5075872;28;20356;-85
2021/06/26 05:04:52;;;;;;;12.00;7.55;;;50.00;34.90;;;;;;5075548;28;20037;-85
2021/06/26 05:07:17;;;;;;;16.20;8.00;;;50.10;34.80;;;;;;5075814;28;20020;-86
2021/06/26 05:09:43;;;;;;;14.32;8.43;;;50.30;34.60;;;;;;5075595;28;20095;-86
2021/06/26 05:12:09;;;;;;;13.70;7.75;;;50.40;34.50;;;;;;5075711;28;20059;-87
2021/06/26 05:14:35;;;;;;;17.00;7.15;;;50.40;34.20;;;;;;5074873;28;20383;-86
2021/06/26 05:17:00;;;;;;;15.63;7.85;;;50.60;34.10;;;;;;5076225;28;20035;-86
2021/06/26 05:19:26;;;;;;;15.75;7.93;;;50.70;34.00;;;;;;5076017;28;20024;-87
2021/06/26 05:21:52;;;;;;;16.35;8.00;;;50.80;33.80;;;;;;5057829;28;20024;-85
2021/06/26 05:24:18;;;;;;;21.75;7.93;;;50.90;33.80;;;;;;5075359;28;20031;-88
2021/06/26 05:26:44;;;;;;;18.15;10.02;;;51.10;33.80;;;;;;5057541;28;20032;-83
2021/06/26 05:29:10;;;;;;;31.52;9.70;;;51.30;33.70;;;;;;5075178;28;20028;-84
2021/06/26 05:31:35;;;;;;;14.40;8.07;;;51.40;33.40;;;;;;5057377;28;20097;-83
2021/06/26 05:34:01;;;;;;;12.25;8.05;;;51.50;33.30;;;;;;5074974;28;20414;-82
2021/06/26 05:36:27;;;;;;;11.07;8.40;;;51.60;33.20;;;;;;5073955;28;20063;-79
2021/06/26 05:38:53;;;;;;;11.27;8.35;;;51.70;33.30;;;;;;5073887;28;20035;-81
2021/06/26 05:41:19;;;;;;;19.85;8.40;;;51.80;33.20;;;;;;5073088;28;20117;-80
2021/06/26 05:43:45;;;;;;;13.65;8.30;;;51.90;33.20;;;;;;5072465;28;20062;-79
2021/06/26 05:46:11;;;;;;;15.35;7.80;;;52.10;33.10;;;;;;5072909;28;20463;-78
2021/06/26 05:48:37;;;;;;;17.27;8.68;;;52.10;33.10;;;;;;5073031;28;20027;-79
2021/06/26 05:51:03;;;;;;;13.95;7.70;;;52.30;32.90;;;;;;5055270;28;20029;-82
2021/06/26 05:53:29;;;;;;;17.75;8.73;;;52.20;32.70;;;;;;5071549;28;20129;-82
2021/06/26 05:55:59;;;;;;;12.52;7.90;;;52.10;32.70;;;;;;5072433;28;20017;-83
2021/06/26 05:58:28;;;;;;;14.93;11.30;;;52.10;32.70;;;;;;5070326;28;20023;-83
2021/06/26 06:00:54;;;;;;;21.35;7.72;;;52.00;32.60;;;;;;5055067;28;20426;-82
2021/06/26 06:03:20;;;;;;;14.07;8.48;;;52.00;32.60;;;;;;5072555;28;20020;-83
2021/06/26 06:05:47;;;;;;;12.00;8.15;;;51.90;32.60;;;;;;5072577;28;20031;-82
2021/06/26 06:08:14;;;;;;;11.52;7.30;;;51.80;32.50;;;;;;5072857;28;20024;-83
2021/06/26 06:10:40;;;;;;;13.63;9.55;;;51.80;32.50;;;;;;5073307;28;20016;-83
2021/06/26 06:13:12;;;;;;;13.27;7.78;;;51.80;32.70;;;;;;5073260;28;20375;-82
2021/06/26 06:15:37;;;;;;;13.27;7.72;;;51.80;32.50;;;;;;5073599;28;20467;-83
2021/06/26 06:18:03;;;;;;;9.57;7.65;;;51.80;32.60;;;;;;5073071;28;20082;-82
2021/06/26 06:20:29;;;;;;;15.85;7.60;;;51.80;32.50;;;;;;5073130;28;20378;-82
2021/06/26 06:22:54;;;;;;;18.67;8.65;;;51.70;32.80;;;;;;5072126;28;20020;-82
2021/06/26 06:25:20;;;;;;;20.95;13.73;;;51.60;32.90;;;;;;5072610;28;20490;-82
2021/06/26 06:27:46;;;;;;;13.02;8.50;;;51.50;33.00;;;;;;5073293;28;20383;-83
2021/06/26 06:30:12;;;;;;;13.05;7.65;;;51.50;32.90;;;;;;5072725;28;20030;-80
2021/06/26 06:32:38;;;;;;;24.40;8.30;;;51.50;32.80;;;;;;5071628;28;20374;-80
2021/06/26 06:35:05;;;;;;;20.63;9.55;;;51.40;32.80;;;;;;5071472;28;20099;-80
2021/06/26 06:37:31;;;;;;;17.48;6.78;;;51.30;32.70;;;;;;5071885;28;20097;-80
2021/06/26 06:39:56;;;;;;;15.93;9.80;;;51.10;32.90;;;;;;5071802;28;20499;-80
2021/06/26 06:42:22;;;;;;;12.63;7.20;;;51.00;32.80;;;;;;5072058;28;20024;-80
2021/06/26 06:44:48;;;;;;;13.30;8.38;;;51.00;33.00;;;;;;5072346;28;20060;-83
2021/06/26 06:47:14;;;;;;;19.58;9.18;;;50.80;32.90;;;;;;5072054;28;20025;-82
2021/06/26 06:49:39;;;;;;;15.25;7.53;;;50.60;33.30;;;;;;5070817;28;20105;-82
2021/06/26 06:52:06;;;;;;;18.48;8.50;;;50.40;33.20;;;;;;5071481;28;20103;-82
2021/06/26 06:54:31;;;;;;;16.50;6.65;;;50.30;33.40;;;;;;5071588;28;20040;-82
2021/06/26 06:56:57;;;;;;;12.00;7.30;;;50.30;33.50;;;;;;5071819;28;20037;-82
2021/06/26 06:59:23;;;;;;;15.48;6.93;;;50.20;33.30;;;;;;5071700;28;20021;-83
2021/06/26 07:01:49;;;;;;;13.00;7.90;;;50.10;33.40;;;;;;5072305;28;20101;-83
2021/06/26 07:04:14;;;;;;;12.13;8.02;;;49.90;33.60;;;;;;5072220;28;20021;-83
2021/06/26 07:06:40;;;;;;;13.55;9.45;;;49.70;33.60;;;;;;5071932;28;20084;-82
2021/06/26 07:09:06;;;;;;;13.35;8.40;;;49.50;34.20;;;;;;5071373;28;20111;-81
2021/06/26 07:11:31;;;;;;;12.57;7.90;;;49.50;34.20;;;;;;5073060;28;20044;-82
2021/06/26 07:13:57;;;;;;;9.32;7.57;;;49.40;33.90;;;;;;5073563;28;20028;-84
2021/06/26 07:16:23;;;;;;;17.02;7.60;;;49.20;34.10;;;;;;5072535;28;20017;-82
2021/06/26 07:18:48;;;;;;;14.13;7.32;;;49.10;34.40;;;;;;5072470;28;20068;-82
2021/06/26 07:21:14;;;;;;;13.98;8.80;;;49.10;34.50;;;;;;5072393;28;20035;-83
2021/06/26 07:23:40;;;;;;;15.75;7.28;;;49.00;34.70;;;;;;5072240;28;20028;-83
2021/06/26 07:26:05;;;;;;;13.50;7.38;;;48.70;34.60;;;;;;5071982;28;20025;-83
2021/06/26 07:28:31;;;;;;;10.50;7.43;;;48.70;35.00;;;;;;5072130;28;20357;-83
2021/06/26 07:30:57;;;;;;;14.48;7.47;;;48.60;35.00;;;;;;5071848;28;20039;-82
2021/06/26 07:33:23;;;;;;;14.02;6.90;;;48.50;35.00;;;;;;5072061;28;20029;-81
2021/06/26 07:35:48;;;;;;;20.95;11.68;;;48.50;35.10;;;;;;5071442;28;20025;-82
2021/06/26 07:38:14;;;;;;;19.20;7.20;;;48.50;35.10;;;;;;5071252;28;20099;-82
2021/06/26 07:40:40;;;;;;;13.75;7.50;;;48.50;34.80;;;;;;5071822;28;20024;-82
2021/06/26 07:43:06;;;;;;;10.52;6.38;;;48.40;35.00;;;;;;5072263;28;20028;-82
2021/06/26 07:45:32;;;;;;;12.93;6.78;;;48.30;35.20;;;;;;5071933;28;20095;-82
2021/06/26 07:47:58;;;;;;;18.80;10.30;;;48.20;35.30;;;;;;5072250;28;20117;-82
2021/06/26 07:50:24;;;;;;;16.35;8.10;;;48.10;35.90;;;;;;5071924;28;20067;-84
2021/06/26 07:52:49;;;;;;;16.27;8.70;;;48.00;36.20;;;;;;5071439;28;20092;-82
2021/06/26 07:55:15;;;;;;;13.93;6.97;;;47.90;36.00;;;;;;5071789;28;20372;-84
2021/06/26 07:57:41;;;;;;;18.38;8.25;;;47.80;36.10;;;;;;5072496;28;20485;-82
2021/06/26 08:00:08;;;;;;;10.55;6.82;;;47.70;36.00;;;;;;5071779;28;20104;-84
2021/06/26 08:02:34;;;;;;;13.90;7.32;;;47.60;36.20;;;;;;5072566;28;20050;-81
2021/06/26 08:04:59;;;;;;;12.45;7.43;;;47.30;36.10;;;;;;5071645;28;20061;-82
2021/06/26 08:07:25;;;;;;;12.85;6.97;;;46.90;36.40;;;;;;5072380;28;20108;-81
2021/06/26 08:09:51;;;;;;;17.63;7.57;;;46.50;36.90;;;;;;5072173;28;20033;-82
2021/06/26 08:12:17;;;;;;;19.40;7.10;;;46.20;37.50;;;;;;5071623;28;20474;-82
2021/06/26 08:14:43;;;;;;;13.57;7.05;;;46.00;37.80;;;;;;5072306;28;20035;-82
2021/06/26 08:17:13;;;;;;;16.73;7.90;;;45.60;38.00;;;;;;5070953;28;20021;-82
2021/06/26 08:19:40;;;;;;;17.98;7.10;;;45.30;38.40;;;;;;5076965;28;20552;-82
2021/06/26 08:22:06;;;;;;;16.58;7.80;;;44.90;38.60;;;;;;5076046;28;20024;-82
2021/06/26 08:24:33;;;;;;;16.90;7.72;;;44.60;39.20;;;;;;5075348;28;20497;-83
2021/06/26 08:26:59;;;;;;;14.77;7.95;;;44.50;39.60;;;;;;5075395;28;20532;-85
2021/06/26 08:29:25;;;;;;;21.75;9.35;;;44.30;39.90;;;;;;5076173;28;20056;-82
2021/06/26 08:31:51;;;;;;;20.95;11.38;;;44.10;40.20;;;;;;5076380;28;20063;-82
2021/06/26 08:34:16;;;;;;;16.40;8.68;;;44.10;40.60;;;;;;5074937;28;20039;-83
2021/06/26 08:36:42;;;;;;;23.40;9.52;;;43.90;40.60;;;;;;5074152;28;20021;-82
2021/06/26 08:39:08;;;;;;;23.75;12.13;;;43.80;40.80;;;;;;5074745;28;20021;-82
2021/06/26 08:41:45;;;;;;;17.30;9.18;;;43.60;41.00;;;;;;5075469;28;20017;-82
2021/06/26 08:44:12;;;;;;;17.85;13.82;;;43.50;41.10;;;;;;5074204;28;20022;-81
2021/06/26 08:46:42;;;;;;;13.52;7.85;;;43.40;41.30;;;;;;5056175;28;20027;-82
2021/06/26 08:49:09;;;;;;;13.25;8.23;;;43.30;41.40;;;;;;5073854;28;20020;-82
2021/06/26 08:51:36;;;;;;;18.60;12.27;;;43.20;41.50;;;;;;5055723;28;20491;-83
2021/06/26 08:54:02;;;;;;;19.58;8.45;;;43.00;41.50;;;;;;5073465;28;20483;-83
2021/06/26 08:56:28;;;;;;;16.35;8.20;;;42.90;41.60;;;;;;5073914;28;20024;-82
2021/06/26 08:58:54;;;;;;;17.15;8.18;;;42.80;41.90;;;;;;5073776;28;20110;-81
2021/06/26 09:01:20;;;;;;;24.15;6.60;;;42.70;42.10;;;;;;5073869;28;20067;-82
2021/06/26 09:03:46;;;;;;;17.05;9.73;;;42.50;41.90;;;;;;5073291;28;20379;-81
2021/06/26 09:06:11;;;;;;;15.02;8.05;;;42.30;42.10;;;;;;5072824;28;20070;-83
2021/06/26 09:08:48;;;;;;;14.52;7.45;;;42.20;42.30;;;;;;5073424;28;20115;-79
2021/06/26 09:11:19;;;;;;;15.10;7.18;;;42.10;42.40;;;;;;5073333;28;20017;-82
2021/06/26 09:13:45;;;;;;;15.90;9.25;;;41.90;42.50;;;;;;5072903;28;20387;-80
2021/06/26 09:16:13;;;;;;;15.77;7.90;;;41.80;43.00;;;;;;5073305;28;20499;-81
2021/06/26 09:18:43;;;;;;;19.05;7.10;;;41.80;43.40;;;;;;5073546;28;20098;-80
2021/06/26 09:21:25;;;;;;;19.13;7.00;;;41.70;43.30;;;;;;5072913;28;20029;-78
2021/06/26 09:24:06;;;;;;;14.85;6.65;;;41.70;43.00;;;;;;5073130;28;20443;-81
2021/06/26 09:26:32;;;;;;;;;;;41.60;43.00;;;;;;5071556;28;20021;-81
2021/06/26 09:29:13;;;;;;;13.13;6.93;;;41.40;42.80;;;;;;5073095;28;20354;-81
2021/06/26 09:31:50;;;;;;;26.40;7.15;;;41.40;43.10;;;;;;5071537;28;20037;-80
2021/06/26 09:34:16;;;;;;;9.40;6.38;;;41.30;43.40;;;;;;5070150;28;20090;-80
2021/06/26 09:36:42;;;;;;;20.50;6.68;;;41.30;43.50;;;;;;5055299;28;20483;-80
2021/06/26 09:39:08;;;;;;;14.15;6.20;;;41.20;43.50;;;;;;5071571;28;20679;-80
2021/06/26 09:41:36;;;;;;;17.77;6.30;;;41.10;43.60;;;;;;5072641;28;20028;-81
2021/06/26 09:44:12;;;;;;;15.55;5.88;;;41.00;43.80;;;;;;5072882;28;20029;-81
2021/06/26 09:46:47;;;;;;;13.80;6.22;;;40.90;44.00;;;;;;5072863;28;20017;-81
2021/06/26 09:49:13;;;;;;;15.13;6.18;;;40.90;44.20;;;;;;5072876;28;20024;-81
2021/06/26 09:51:39;;;;;;;17.30;6.40;;;40.80;44.20;;;;;;5072740;28;20027;-80
2021/06/26 09:54:06;;;;;;;15.30;7.28;;;40.80;44.20;;;;;;5072276;28;20119;-80
2021/06/26 09:56:50;;;;;;;13.02;6.57;;;40.70;44.40;;;;;;5054526;28;20375;-80
2021/06/26 09:59:19;;;;;;;10.57;6.07;;;40.50;44.60;;;;;;5072353;28;20028;-82
2021/06/26 10:01:48;;;;;;;11.93;6.50;;;40.50;44.70;;;;;;5072123;28;20052;-80
2021/06/26 10:04:16;;;;;;;9.63;6.35;;;40.40;44.60;;;;;;5072196;28;20490;-80
2021/06/26 10:06:43;;;;;;;10.82;5.72;;;40.30;45.00;;;;;;5072125;28;20028;-80
2021/06/26 10:09:09;;;;;;;20.30;7.45;;;40.20;44.80;;;;;;5071870;28;20037;-80
2021/06/26 10:11:37;;;;;;;13.45;6.20;;;40.00;45.30;;;;;;5072159;28;20029;-80
2021/06/26 10:14:07;;;;;;;17.65;6.85;;;39.70;45.20;;;;;;5071815;28;20024;-78
2021/06/26 10:16:35;;;;;;;12.68;6.38;;;39.60;45.60;;;;;;5053741;28;20111;-80
2021/06/26 10:19:04;;;;;;;22.98;6.85;;;39.50;45.70;;;;;;5072314;28;20044;-79
2021/06/26 10:21:32;;;;;;;16.88;6.90;;;39.50;46.30;;;;;;5072326;28;20081;-80
2021/06/26 10:24:00;;;;;;;17.73;6.65;;;39.30;46.10;;;;;;5071824;28;20029;-79
2021/06/26 10:26:26;;;;;;;19.02;6.78;;;39.10;46.20;;;;;;5072393;28;20024;-79
2021/06/26 10:28:59;;;;;;;13.57;6.93;;;38.80;46.80;;;;;;5071505;28;20352;-79
2021/06/26 10:31:34;;;;;;;13.40;8.07;;;38.70;46.90;;;;;;5071598;28;20478;-80
2021/06/26 10:34:16;;;;;;;15.82;5.93;;;38.70;47.20;;;;;;5071480;28;20085;-80
2021/06/26 10:36:46;;;;;;;12.15;6.20;;;38.50;46.90;;;;;;5053424;28;20016;-80
2021/06/26 10:39:29;;;;;;;18.03;6.57;;;38.40;46.80;;;;;;5071499;28;20025;-80
2021/06/26 10:42:05;;;;;;;9.95;5.85;;;38.10;47.10;;;;;;5053624;28;20024;-81
2021/06/26 10:44:41;;;;;;;15.57;6.32;;;38.00;47.60;;;;;;5071239;28;20032;-81
2021/06/26 10:47:07;;;;;;;13.27;7.25;;;38.00;47.90;;;;;;5071363;28;20036;-80
2021/06/26 10:49:33;;;;;;;15.75;6.18;;;38.10;47.90;;;;;;5053487;28;20485;-80
2021/06/26 10:52:19;;;;;;;13.02;6.40;;;38.20;47.90;;;;;;5071083;28;20093;-81
2021/06/26 10:54:57;;;;;;;11.52;6.50;;;38.20;47.70;;;;;;5071879;28;20040;-80
2021/06/26 10:57:24;;;;;;;13.13;6.00;;;38.30;47.60;;;;;;5070973;28;20028;-80
2021/06/26 11:00:09;;;;;;;10.98;5.97;;;38.40;47.30;;;;;;5071169;28;20024;-80
2021/06/26 11:02:43;;;;;;;10.80;6.40;;;38.30;47.40;;;;;;5071415;28;20013;-81
2021/06/26 11:05:10;;;;;;;10.77;6.28;;;38.20;47.60;;;;;;5070982;28;20020;-81
2021/06/26 11:07:37;;;;;;;13.27;6.45;;;38.10;48.00;;;;;;5070383;28;20414;-80
2021/06/26 11:10:12;;;;;;;13.43;5.97;;;38.00;47.80;;;;;;5070787;28;20021;-81
2021/06/26 11:12:48;;;;;;;16.85;7.20;;;37.80;48.20;;;;;;5053129;28;20029;-80
2021/06/26 11:15:16;;;;;;;18.65;6.82;;;37.80;48.80;;;;;;5071347;28;20024;-81
2021/06/26 11:17:43;;;;;;;14.70;6.22;;;37.70;48.80;;;;;;5071365;28;20040;-80
2021/06/26 11:20:13;;;;;;;11.75;6.60;;;37.70;49.10;;;;;;5071319;28;20111;-80
2021/06/26 11:22:42;;;;;;;17.10;6.72;;;37.80;48.80;;;;;;5070673;28;20027;-80
2021/06/26 11:25:12;;;;;;;11.05;6.05;;;37.60;48.60;;;;;;5071078;28;20036;-80
2021/06/26 11:27:38;;;;;;;14.90;6.47;;;37.40;48.40;;;;;;5071786;28;20031;-79
2021/06/26 11:30:06;;;;;;;14.88;7.00;;;37.20;48.60;;;;;;5071450;28;20020;-80
2021/06/26 11:32:32;;;;;;;19.77;6.93;;;36.90;49.10;;;;;;5071810;28;20036;-80
2021/06/26 11:35:00;;;;;;;15.95;6.57;;;36.70;49.60;;;;;;5071762;28;20119;-80
2021/06/26 11:37:37;;;;;;;12.35;6.68;;;36.70;49.90;;;;;;5070937;28;20024;-80
2021/06/26 11:40:16;;;;;;;13.98;6.53;;;36.60;50.10;;;;;;5070308;28;20459;-79
2021/06/26 11:42:44;;;;;;;12.00;6.93;;;36.50;50.20;;;;;;5070690;28;20025;-81
2021/06/26 11:45:12;;;;;;;11.98;6.18;;;36.50;50.40;;;;;;5070902;28;20039;-81
2021/06/26 11:47:38;;;;;;;9.57;5.72;;;36.60;50.10;;;;;;5070491;28;20025;-80
2021/06/26 11:50:15;;;;;;;11.10;6.45;;;36.50;49.50;;;;;;5070811;28;20023;-80
2021/06/26 11:52:41;;;;;;;10.82;6.35;;;36.40;49.70;;;;;;5072884;28;20024;-81
2021/06/26 11:55:08;;;;;;;12.15;6.07;;;36.30;50.40;;;;;;5074318;28;20036;-79
2021/06/26 11:57:33;;;;;;;14.32;6.53;;;36.10;50.40;;;;;;5075257;28;20118;-79
2021/06/26 11:59:59;;;;;;;14.52;6.25;;;36.00;50.60;;;;;;5074529;28;20021;-79
2021/06/26 12:02:33;;;;;;;11.38;6.43;;;35.90;50.50;;;;;;5075166;28;20355;-81
2021/06/26 12:05:03;;;;;;;14.75;5.50;;;35.90;50.90;;;;;;5075277;28;20032;-81
2021/06/26 12:07:37;;;;;;;8.65;6.53;;;35.80;49.60;;;;;;5074769;28;20029;-82
2021/06/26 12:10:05;;;;;;;15.20;6.45;;;35.70;50.20;;;;;;5075372;28;20044;-81
2021/06/26 12:12:39;;;;;;;8.98;6.68;;;35.70;50.30;;;;;;5075465;28;20479;-82
2021/06/26 12:15:09;;;;;;;16.60;6.95;;;35.50;51.50;;;;;;5075275;28;20095;-82
2021/06/26 12:17:35;;;;;;;10.35;6.70;;;35.50;51.60;;;;;;5075126;28;20027;-82
2021/06/26 12:20:08;;;;;;;10.50;6.03;;;35.40;51.70;;;;;;5075709;28;20036;-82
2021/06/26 12:22:34;;;;;;;11.80;5.07;;;35.30;51.20;;;;;;5075383;28;20085;-84
2021/06/26 12:25:08;;;;;;;11.38;5.93;;;35.10;49.30;;;;;;5075707;28;20025;-82
2021/06/26 12:27:34;;;;;;;13.50;5.90;;;35.10;49.30;;;;;;5075682;28;20032;-82
2021/06/26 12:30:05;;;;;;;12.02;5.55;;;35.00;49.30;;;;;;5075502;28;20121;-82
2021/06/26 12:32:35;;;;;;;11.95;5.25;;;35.00;49.70;;;;;;5075433;28;20146;-84
2021/06/26 12:35:02;;;;;;;12.75;5.38;;;35.00;48.70;;;;;;5075401;28;20031;-83